createdAt,value
2019-01-20T00:00:41.703Z,68.47
2019-01-20T00:03:52.467Z,62.63
2019-01-20T00:06:49.637Z,63.30
2019-01-20T00:09:44.146Z,64.50
2019-01-20T00:12:22.871Z,67.17
2019-01-20T00:15:34.485Z,62.60
2019-01-20T00:19:15.036Z,58.13
2019-01-20T00:22:14.539Z,57.13
2019-01-20T00:25:28.221Z,55.87
2019-01-20T00:28:40.126Z,59.37
2019-01-20T00:31:40.189Z,63.20
2019-01-20T00:34:19.913Z,63.77
2019-01-20T00:37:15.667Z,55.80
2019-01-20T00:39:56.751Z,55.77
2019-01-20T00:43:06.845Z,54.27
2019-01-20T00:46:06.834Z,64.20
2019-01-20T00:49:19.370Z,61.67
2019-01-20T00:52:33.865Z,69.17
2019-01-20T00:55:29.289Z,77.50
2019-01-20T00:58:08.543Z,69.00
2019-01-20T01:01:18.987Z,57.47
2019-01-20T01:04:13.228Z,54.77
2019-01-20T01:07:06.980Z,54.83
2019-01-20T01:09:47.270Z,86.93
2019-01-20T01:12:28.342Z,65.93
2019-01-20T01:15:22.816Z,57.30
2019-01-20T01:18:03.597Z,52.83
2019-01-20T01:21:14.205Z,49.37
2019-01-20T01:23:55.297Z,48.83
2019-01-20T01:26:43.425Z,47.87
2019-01-20T01:29:29.053Z,81.17
2019-01-20T01:35:18.967Z,158.73
2019-01-20T01:38:45.214Z,98.03
2019-01-20T01:41:29.541Z,71.20
2019-01-20T01:44:09.553Z,58.50
2019-01-20T01:46:48.558Z,54.37
2019-01-20T01:49:44.041Z,56.63
2019-01-20T01:52:27.030Z,60.83
2019-01-20T01:55:15.787Z,56.60
2019-01-20T01:58:10.027Z,61.07
2019-01-20T02:00:51.046Z,60.23
2019-01-20T02:03:39.901Z,61.63
2019-01-20T02:06:25.820Z,66.97
2019-01-20T02:09:10.994Z,60.53
2019-01-20T02:12:26.802Z,62.20
2019-01-20T02:15:12.176Z,61.90
2019-01-20T02:17:51.096Z,69.97
2019-01-20T02:20:38.947Z,73.87
2019-01-20T02:23:52.381Z,62.73
2019-01-20T02:26:36.704Z,67.30
2019-01-20T02:29:36.301Z,56.03
2019-01-20T02:32:21.807Z,60.60
2019-01-20T02:35:02.168Z,54.77
2019-01-20T02:37:43.636Z,61.80
2019-01-20T02:40:29.770Z,54.07
2019-01-20T02:43:09.798Z,53.10
2019-01-20T02:46:12.129Z,50.83
2019-01-20T02:48:58.400Z,51.50
2019-01-20T02:52:09.416Z,54.67
2019-01-20T02:54:52.567Z,55.10
2019-01-20T03:00:48.749Z,48.50
2019-01-20T03:04:03.477Z,50.67
2019-01-20T03:18:23.567Z,54.87
2019-01-20T03:21:57.908Z,49.07
2019-01-20T03:25:34.323Z,42.87
2019-01-20T03:28:32.966Z,45.13
2019-01-20T03:32:06.236Z,48.20
2019-01-20T03:34:51.125Z,46.70
2019-01-20T03:37:45.385Z,45.90
2019-01-20T03:40:49.728Z,51.60
2019-01-20T03:43:44.713Z,42.33
2019-01-20T03:46:35.063Z,45.10
2019-01-20T03:49:33.274Z,42.77
2019-01-20T03:52:21.655Z,42.30
2019-01-20T03:55:01.456Z,50.70
2019-01-20T03:57:50.449Z,58.17
2019-01-20T04:00:49.325Z,59.13
2019-01-20T04:03:31.880Z,46.47
2019-01-20T04:06:17.006Z,45.90
2019-01-20T04:08:55.354Z,39.03
2019-01-20T04:11:34.175Z,100.43
2019-01-20T04:14:18.469Z,58.03
2019-01-20T04:17:01.336Z,48.67
2019-01-20T04:20:45.016Z,40.83
2019-01-20T04:27:26.136Z,43.40
2019-01-20T04:30:29.470Z,48.17
2019-01-20T04:33:24.726Z,93.23
2019-01-20T04:36:04.133Z,64.60
2019-01-20T04:38:45.107Z,55.47
2019-01-20T04:41:28.928Z,53.57
2019-01-20T04:44:09.881Z,51.10
2019-01-20T04:46:50.120Z,56.60
2019-01-20T04:49:37.617Z,52.27
2019-01-20T04:52:18.588Z,50.53
2019-01-20T04:55:03.375Z,51.00
2019-01-20T04:57:52.318Z,43.60
2019-01-20T05:00:39.288Z,37.17
2019-01-20T05:03:18.265Z,46.80
2019-01-20T05:09:09.277Z,42.33
2019-01-20T05:11:55.068Z,35.93
2019-01-20T05:14:45.596Z,50.60
2019-01-20T05:17:27.696Z,69.63
2019-01-20T05:20:18.288Z,42.23
2019-01-20T05:23:24.171Z,43.57
2019-01-20T05:26:33.419Z,38.60
2019-01-20T05:29:16.108Z,32.77
2019-01-20T05:32:02.982Z,36.07
2019-01-20T05:35:03.254Z,33.37
2019-01-20T05:37:53.388Z,31.87
2019-01-20T05:40:50.617Z,28.53
2019-01-20T05:43:48.677Z,27.83
2019-01-20T05:47:08.169Z,25.77
2019-01-20T05:49:54.289Z,34.80
2019-01-20T05:53:05.042Z,38.50
2019-01-20T05:56:03.645Z,32.33
2019-01-20T05:58:47.163Z,27.90
2019-01-20T06:01:49.443Z,49.87
2019-01-20T06:04:35.714Z,31.97
2019-01-20T06:07:50.788Z,32.20
2019-01-20T06:10:40.706Z,33.33
2019-01-20T06:13:22.406Z,26.00
2019-01-20T06:16:21.210Z,24.90
2019-01-20T06:19:04.472Z,28.33
2019-01-20T06:22:05.367Z,30.97
2019-01-20T06:35:15.140Z,23.33
2019-01-20T06:37:58.974Z,24.70
2019-01-20T06:40:49.869Z,25.77
2019-01-20T06:43:31.587Z,27.23
2019-01-20T06:46:14.133Z,25.63
2019-01-20T06:48:58.203Z,25.53
2019-01-20T06:51:42.426Z,24.23
2019-01-20T06:54:28.152Z,30.90
2019-01-20T06:57:27.719Z,26.20
2019-01-20T07:00:22.166Z,25.33
2019-01-20T07:03:16.892Z,26.80
2019-01-20T07:06:18.735Z,26.97
2019-01-20T07:09:18.274Z,26.90
2019-01-20T07:11:59.139Z,25.57
2019-01-20T07:14:53.799Z,23.10
2019-01-20T07:18:14.636Z,21.50
2019-01-20T07:21:12.497Z,24.50
2019-01-20T07:24:30.505Z,23.70
2019-01-20T07:27:20.577Z,23.50
2019-01-20T07:30:13.006Z,25.53
2019-01-20T07:33:25.789Z,26.23
2019-01-20T07:36:36.262Z,23.53
2019-01-20T07:39:26.472Z,24.10
2019-01-20T07:42:25.252Z,28.87
2019-01-20T07:45:23.852Z,24.97
2019-01-20T07:48:12.147Z,25.00
2019-01-20T07:55:17.270Z,24.60
2019-01-20T07:58:22.090Z,25.00
2019-01-20T08:01:18.754Z,27.47
2019-01-20T08:04:06.790Z,31.23
2019-01-20T08:07:06.273Z,30.53
2019-01-20T08:10:17.469Z,30.87
2019-01-20T08:13:11.269Z,27.90
2019-01-20T08:15:55.735Z,29.30
2019-01-20T08:18:37.257Z,27.07
2019-01-20T08:21:21.626Z,29.17
2019-01-20T08:24:03.580Z,28.33
2019-01-20T08:26:44.101Z,27.47
2019-01-20T08:29:28.113Z,29.97
2019-01-20T08:32:18.743Z,35.63
2019-01-20T08:35:00.341Z,30.77
2019-01-20T08:37:50.253Z,33.20
2019-01-20T08:40:44.999Z,29.90
2019-01-20T08:43:32.648Z,30.80
2019-01-20T08:46:45.510Z,30.33
2019-01-20T08:57:59.505Z,28.93
2019-01-20T09:00:43.740Z,30.10
2019-01-20T09:03:40.872Z,29.13
2019-01-20T09:06:26.640Z,32.20
2019-01-20T09:09:34.224Z,30.40
2019-01-20T09:12:20.841Z,28.63
2019-01-20T09:15:08.456Z,30.37
2019-01-20T09:18:01.592Z,29.73
2019-01-20T09:20:45.553Z,28.90
2019-01-20T09:23:33.464Z,30.50
2019-01-20T09:26:16.671Z,31.37
2019-01-20T09:29:04.809Z,36.07
2019-01-20T09:31:53.619Z,33.77
2019-01-20T09:34:38.419Z,33.50
2019-01-20T09:37:41.525Z,34.37
2019-01-20T09:40:30.053Z,39.98
2019-01-20T09:43:09.529Z,35.00
2019-01-20T09:46:05.123Z,33.03
2019-01-20T09:48:53.740Z,32.53
2019-01-20T09:51:39.857Z,34.77
2019-01-20T09:54:26.246Z,31.90
2019-01-20T09:57:11.566Z,33.70
2019-01-20T09:59:57.897Z,33.27
2019-01-20T10:02:42.632Z,32.70
2019-01-20T10:05:26.742Z,30.47
2019-01-20T10:08:05.564Z,30.77
2019-01-20T10:11:20.300Z,34.37
2019-01-20T10:14:07.776Z,37.03
2019-01-20T10:16:47.163Z,32.93
2019-01-20T10:19:29.455Z,30.80
2019-01-20T10:22:10.768Z,31.93
2019-01-20T10:24:56.375Z,25.07
2019-01-20T10:27:37.493Z,25.73
2019-01-20T10:30:24.615Z,29.33
2019-01-20T10:33:12.147Z,24.30
2019-01-20T10:36:05.942Z,26.63
2019-01-20T10:39:16.864Z,24.57
2019-01-20T10:42:14.487Z,31.07
2019-01-20T10:45:08.465Z,27.90
2019-01-20T10:47:53.263Z,27.83
2019-01-20T10:54:53.425Z,28.57
2019-01-20T11:01:24.631Z,30.23
2019-01-20T11:04:15.451Z,30.50
2019-01-20T11:07:01.462Z,29.03
2019-01-20T11:10:01.250Z,28.40
2019-01-20T11:12:50.297Z,31.80
2019-01-20T11:15:29.774Z,30.70
2019-01-20T11:18:31.170Z,31.33
2019-01-20T11:21:19.640Z,29.87
2019-01-20T11:24:00.720Z,30.50
2019-01-20T11:26:59.403Z,31.60
2019-01-20T11:29:42.032Z,32.20
2019-01-20T11:32:42.477Z,33.07
2019-01-20T11:35:38.705Z,28.83
2019-01-20T11:38:20.355Z,29.07
2019-01-20T11:41:02.934Z,30.33
2019-01-20T11:43:46.471Z,31.23
2019-01-20T11:46:35.800Z,39.17
2019-01-20T11:49:17.436Z,35.90
2019-01-20T11:52:15.263Z,32.90
2019-01-20T11:54:59.622Z,34.23
2019-01-20T11:57:39.312Z,34.13
2019-01-20T12:00:56.679Z,35.00
2019-01-20T12:04:02.288Z,44.33
2019-01-20T12:06:53.852Z,39.37
2019-01-20T12:09:35.358Z,35.87
2019-01-20T12:12:15.933Z,34.57
2019-01-20T12:15:03.829Z,33.20
2019-01-20T12:17:51.125Z,34.50
2019-01-20T12:20:35.078Z,33.07
2019-01-20T12:23:33.240Z,36.47
2019-01-20T12:26:30.469Z,35.77
2019-01-20T12:29:17.090Z,34.37
2019-01-20T12:32:06.963Z,32.20
2019-01-20T12:34:55.803Z,33.33
2019-01-20T12:37:40.076Z,34.13
2019-01-20T12:40:40.890Z,34.33
2019-01-20T12:43:26.318Z,36.17
2019-01-20T12:46:28.996Z,41.30
2019-01-20T12:49:23.181Z,37.03
2019-01-20T12:52:13.913Z,38.33
2019-01-20T12:55:11.350Z,38.90
2019-01-20T12:58:13.888Z,49.40
2019-01-20T13:01:19.222Z,41.70
2019-01-20T13:04:03.710Z,38.10
2019-01-20T13:06:48.155Z,38.63
2019-01-20T13:09:59.022Z,38.10
2019-01-20T13:12:44.606Z,39.20
2019-01-20T13:15:51.297Z,38.47
2019-01-20T13:18:39.948Z,36.93
2019-01-20T13:21:43.987Z,35.97
2019-01-20T13:27:34.152Z,30.10
2019-01-20T14:32:14.664Z,34.47
2019-01-20T14:35:08.146Z,35.60
2019-01-20T14:38:02.154Z,34.87
2019-01-20T14:41:04.016Z,33.90
2019-01-20T14:53:08.019Z,32.30
2019-01-20T14:56:35.326Z,30.77
2019-01-20T14:59:38.799Z,30.50
2019-01-20T15:02:35.525Z,31.53
2019-01-20T15:06:09.283Z,32.90
2019-01-20T15:09:42.112Z,31.10
2019-01-20T15:13:02.226Z,33.57
2019-01-20T15:16:13.176Z,32.10
2019-01-20T15:19:52.003Z,33.07
2019-01-20T15:23:47.244Z,34.10
2019-01-20T15:27:06.932Z,36.93
2019-01-20T15:30:19.283Z,40.80
2019-01-20T15:33:39.677Z,37.33
2019-01-20T15:37:07.722Z,38.23
2019-01-20T15:40:15.096Z,33.40
2019-01-20T15:43:40.550Z,34.27
2019-01-20T15:47:03.344Z,35.50
2019-01-20T15:50:23.789Z,34.57
2019-01-20T15:53:31.273Z,34.30
2019-01-20T15:56:37.913Z,32.57
2019-01-20T15:59:42.880Z,37.13
2019-01-20T16:02:54.969Z,37.93
2019-01-20T16:05:54.899Z,35.40
2019-01-20T16:09:00.143Z,33.43
2019-01-20T16:12:12.279Z,34.97
2019-01-20T16:19:45.693Z,36.10
2019-01-20T16:22:42.082Z,36.60
2019-01-20T16:29:53.901Z,29.27
2019-01-20T16:33:08.588Z,28.60
2019-01-20T16:36:16.145Z,28.73
2019-01-20T16:39:19.155Z,26.90
2019-01-20T16:42:35.591Z,26.87
2019-01-20T16:45:42.135Z,24.53
2019-01-20T16:48:39.609Z,25.47
2019-01-20T16:55:14.570Z,24.13
2019-01-20T16:58:01.347Z,24.77
2019-01-20T17:01:08.737Z,24.73
2019-01-20T17:04:17.967Z,25.33
2019-01-20T17:07:35.607Z,24.00
2019-01-20T17:11:09.669Z,24.07
2019-01-20T17:14:06.785Z,23.80
2019-01-20T17:16:48.757Z,24.20
2019-01-20T17:20:18.245Z,25.10
2019-01-20T17:23:13.027Z,24.43
2019-01-20T17:26:10.520Z,24.23
2019-01-20T17:32:39.469Z,26.43
2019-01-20T17:35:25.300Z,23.33
2019-01-20T17:38:10.620Z,24.47
2019-01-20T17:41:07.452Z,24.57
2019-01-20T17:44:23.365Z,24.40
2019-01-20T17:54:47.577Z,24.10
2019-01-20T18:06:16.030Z,23.30
2019-01-20T18:09:24.274Z,23.30
2019-01-20T18:12:47.845Z,23.00
2019-01-20T18:19:42.464Z,20.80
2019-01-20T18:22:49.437Z,22.00
2019-01-20T18:26:22.483Z,23.73
2019-01-20T18:29:19.737Z,27.13
2019-01-20T18:36:17.529Z,24.97
2019-01-20T18:39:52.734Z,21.13
2019-01-20T18:50:14.705Z,21.77
2019-01-20T18:53:21.317Z,20.63
2019-01-20T19:12:04.513Z,16.23
2019-01-20T19:22:44.433Z,17.07
2019-01-20T19:29:44.607Z,19.03
2019-01-20T19:36:08.022Z,20.23
2019-01-20T19:51:46.170Z,21.03
2019-01-20T20:06:49.901Z,21.63
2019-01-20T20:18:23.738Z,20.13
2019-01-20T20:41:38.970Z,22.83
2019-01-20T20:56:50.205Z,32.50
2019-01-20T21:16:37.936Z,36.27
2019-01-20T21:36:21.133Z,34.83
2019-01-20T22:01:55.650Z,29.33
2019-01-20T22:20:16.755Z,18.60
2019-01-20T22:23:56.854Z,18.13
2019-01-20T22:39:40.547Z,17.47
2019-01-20T22:42:51.938Z,20.77
2019-01-20T23:04:40.886Z,17.40
2019-01-20T23:08:21.303Z,16.40
2019-01-20T23:15:58.265Z,18.17
2019-01-20T23:19:29.480Z,16.83
2019-01-20T23:41:39.159Z,19.13
2019-01-20T23:48:40.703Z,18.47
2019-01-20T23:51:51.784Z,20.83
2019-01-20T23:58:20.364Z,17.90
